Time;durP1;ratioP1;P1;durP2;ratioP2;P2;SDS_P1;SDS_P2;PMS_P1;PMS_P2;Temp;Humidity;BMP_temperature;BMP_pressure;BME280_temperature;BME280_humidity;BME280_pressure;Samples;Min_cycle;Max_cycle;Signal;HPM_P1;HPM_P2
2023/10/20 00:01:26;;;;;;;8.90;6.85;;;7.90;99.90;;;;;;5107274;28;20077;-85
2023/10/20 00:03:51;;;;;;;10.30;7.32;;;7.80;99.90;;;;;;5098134;27;20103;-85
2023/10/20 00:06:17;;;;;;;8.15;6.68;;;7.90;99.90;;;;;;5102226;27;20508;-85
2023/10/20 00:08:44;;;;;;;10.00;7.28;;;7.90;99.90;;;;;;5085635;27;20067;-85
2023/10/20 00:11:10;;;;;;;9.38;6.88;;;7.90;99.90;;;;;;5080852;27;20031;-85
2023/10/20 00:13:36;;;;;;;10.35;7.18;;;7.80;99.90;;;;;;5115369;27;20137;-84
2023/10/20 00:16:02;;;;;;;9.27;6.85;;;7.90;99.90;;;;;;5115289;27;20126;-84
2023/10/20 00:18:27;;;;;;;10.68;7.10;;;8.10;99.90;;;;;;5095124;28;20044;-84
2023/10/20 00:20:53;;;;;;;9.75;7.20;;;8.10;99.90;;;;;;5091819;27;20056;-85
2023/10/20 00:23:19;;;;;;;11.38;7.63;;;7.80;99.90;;;;;;5114508;27;20043;-86
2023/10/20 00:25:44;;;;;;;10.05;7.40;;;7.90;99.90;;;;;;5055979;27;20113;-86
2023/10/20 00:28:10;;;;;;;10.88;7.82;;;7.80;99.90;;;;;;5095969;28;20122;-85
2023/10/20 00:30:41;;;;;;;10.07;7.28;;;7.90;99.90;;;;;;5085754;27;20035;-85
2023/10/20 00:33:07;;;;;;;10.23;7.35;;;8.10;99.90;;;;;;5103223;28;20039;-78
2023/10/20 00:35:35;;;;;;;10.95;7.93;;;8.10;99.90;;;;;;5077049;28;20043;-78
2023/10/20 00:38:01;;;;;;;11.00;7.55;;;7.80;99.90;;;;;;5095253;27;20034;-79
2023/10/20 00:40:27;;;;;;;9.95;7.30;;;8.10;99.90;;;;;;5064950;28;20031;-79
2023/10/20 00:42:53;;;;;;;10.68;7.63;;;7.70;99.90;;;;;;5067450;28;20126;-79
2023/10/20 00:45:19;;;;;;;11.45;7.68;;;7.80;99.90;;;;;;5094220;28;20128;-79
2023/10/20 00:47:48;;;;;;;11.45;7.60;;;8.10;99.90;;;;;;5093819;27;20372;-83
2023/10/20 00:50:15;;;;;;;10.90;7.82;;;8.10;99.90;;;;;;5115735;27;20528;-81
2023/10/20 00:52:48;;;;;;;10.77;7.00;;;8.10;99.90;;;;;;5095922;27;20041;-81
2023/10/20 00:55:15;;;;;;;11.00;7.88;;;8.10;99.90;;;;;;5102641;28;20097;-79
2023/10/20 00:57:43;;;;;;;10.30;7.05;;;7.80;99.90;;;;;;5057657;27;20031;-78
2023/10/20 01:00:09;;;;;;;11.45;7.68;;;8.10;99.90;;;;;;5095806;27;20070;-78
2023/10/20 01:02:39;;;;;;;11.55;8.27;;;7.90;99.90;;;;;;5074509;27;20043;-78
2023/10/20 01:05:08;;;;;;;10.70;7.38;;;8.10;99.90;;;;;;5103655;28;20122;-79
2023/10/20 01:07:34;;;;;;;11.57;8.30;;;8.00;99.90;;;;;;5078035;28;20087;-79
2023/10/20 01:10:09;;;;;;;13.32;8.30;;;8.10;99.90;;;;;;5076512;27;20069;-78
2023/10/20 01:12:35;;;;;;;11.82;8.05;;;7.90;99.90;;;;;;5112346;28;20485;-79
2023/10/20 01:15:02;;;;;;;14.40;8.40;;;7.90;99.90;;;;;;5102804;28;20035;-84
2023/10/20 01:17:29;;;;;;;11.73;8.07;;;7.80;99.90;;;;;;5067099;27;20339;-84
2023/10/20 01:19:55;;;;;;;13.77;8.25;;;8.20;99.90;;;;;;5080622;27;20050;-84
2023/10/20 01:22:24;;;;;;;10.88;7.38;;;8.00;99.90;;;;;;5094156;27;20391;-84
2023/10/20 01:24:50;;;;;;;12.88;8.90;;;8.00;99.90;;;;;;5096885;27;20035;-84
2023/10/20 01:27:16;;;;;;;12.63;8.40;;;7.80;99.90;;;;;;5111963;28;20108;-84
2023/10/20 01:29:41;;;;;;;12.40;8.75;;;7.80;99.90;;;;;;5098021;27;20043;-84
2023/10/20 01:32:07;;;;;;;12.18;8.75;;;8.10;99.90;;;;;;5092073;28;20034;-84
2023/10/20 01:34:33;;;;;;;12.93;9.35;;;7.80;99.90;;;;;;5079127;28;20074;-85
2023/10/20 01:37:02;;;;;;;14.95;9.55;;;8.00;99.90;;;;;;5079539;27;20031;-84
2023/10/20 01:39:29;;;;;;;14.35;9.95;;;7.80;99.90;;;;;;5077025;28;20486;-85
2023/10/20 01:41:55;;;;;;;14.50;10.10;;;8.00;99.90;;;;;;5109385;28;20035;-85
2023/10/20 01:44:21;;;;;;;15.20;10.32;;;8.10;99.90;;;;;;5080742;27;20043;-79
2023/10/20 01:46:50;;;;;;;15.65;10.68;;;8.00;99.90;;;;;;5085886;28;20051;-79
2023/10/20 01:49:17;;;;;;;15.98;10.73;;;8.10;99.90;;;;;;5093828;27;20143;-79
2023/10/20 01:51:43;;;;;;;15.48;10.00;;;8.10;99.90;;;;;;5093249;28;20036;-79
2023/10/20 01:54:09;;;;;;;14.77;10.27;;;8.10;99.90;;;;;;5077450;28;20043;-79
2023/10/20 01:56:35;;;;;;;18.40;11.88;;;7.90;99.90;;;;;;5105825;27;20039;-79
2023/10/20 01:59:00;;;;;;;17.27;10.82;;;7.90;99.90;;;;;;5075503;28;20039;-80
2023/10/20 02:01:27;;;;;;;15.13;10.85;;;8.10;99.90;;;;;;5078974;28;20401;-79
2023/10/20 02:03:53;;;;;;;14.70;9.98;;;7.90;99.90;;;;;;5056032;28;20075;-79
2023/10/20 02:06:18;;;;;;;17.55;11.43;;;8.20;99.90;;;;;;5100743;28;20032;-79
2023/10/20 02:08:44;;;;;;;16.27;10.38;;;8.10;99.90;;;;;;5105443;28;20051;-79
2023/10/20 02:11:10;;;;;;;14.23;9.85;;;7.80;99.90;;;;;;5098632;28;20529;-78
2023/10/20 02:13:38;;;;;;;15.73;10.32;;;8.10;99.90;;;;;;5093549;28;20036;-86
2023/10/20 02:16:06;;;;;;;14.50;10.15;;;8.20;99.90;;;;;;5095420;28;20039;-85
2023/10/20 02:18:32;;;;;;;17.55;11.50;;;7.80;99.90;;;;;;5084127;28;20138;-85
2023/10/20 02:21:01;;;;;;;16.73;10.98;;;8.20;99.90;;;;;;5112612;27;20138;-84
2023/10/20 02:23:29;;;;;;;16.75;11.02;;;8.20;99.90;;;;;;5107176;27;20075;-84
2023/10/20 02:26:05;;;;;;;15.63;10.50;;;8.00;99.90;;;;;;5106483;27;20462;-84
2023/10/20 02:28:34;;;;;;;17.15;11.40;;;8.20;99.90;;;;;;5097466;27;20067;-84
2023/10/20 02:31:01;;;;;;;16.83;10.85;;;8.00;99.90;;;;;;5092466;27;20118;-83
2023/10/20 02:33:27;;;;;;;20.00;12.20;;;8.10;99.90;;;;;;5100373;27;20040;-84
2023/10/20 02:35:57;;;;;;;16.60;10.77;;;7.90;99.90;;;;;;5059935;27;20040;-84
2023/10/20 02:38:23;;;;;;;14.52;9.85;;;7.80;99.90;;;;;;5077838;28;20031;-84
2023/10/20 02:40:50;;;;;;;16.73;10.77;;;7.90;99.90;;;;;;5102668;28;20054;-83
2023/10/20 02:43:15;;;;;;;18.20;11.60;;;8.10;99.90;;;;;;5117058;27;20031;-83
2023/10/20 02:45:57;;;;;;;14.70;10.27;;;7.80;99.90;;;;;;5101697;27;20039;-84
2023/10/20 02:48:23;;;;;;;18.38;12.18;;;8.10;99.90;;;;;;5082617;28;20039;-84
2023/10/20 02:50:50;;;;;;;15.88;12.25;;;8.20;99.90;;;;;;5084781;28;20070;-83
2023/10/20 02:53:16;;;;;;;14.90;10.30;;;8.20;99.90;;;;;;5104842;27;20031;-83
2023/10/20 02:55:42;;;;;;;17.75;11.98;;;8.20;99.90;;;;;;5118312;27;20039;-84
2023/10/20 02:58:12;;;;;;;;;;;7.80;99.90;;;;;;5100363;27;20042;-83
2023/10/20 03:00:44;;;;;;;17.48;11.57;;;8.20;99.90;;;;;;5115666;27;19923;-84
2023/10/20 03:03:13;;;;;;;16.52;11.20;;;7.80;99.90;;;;;;5093288;27;20039;-84
2023/10/20 03:05:43;;;;;;;16.00;10.90;;;7.80;99.90;;;;;;5090744;28;20067;-83
2023/10/20 03:08:10;;;;;;;18.15;11.98;;;7.90;99.90;;;;;;5094839;27;20055;-83
2023/10/20 03:10:36;;;;;;;15.80;10.82;;;7.80;99.90;;;;;;5123203;27;20044;-83
2023/10/20 03:13:04;;;;;;;18.58;12.05;;;7.90;99.90;;;;;;5085056;27;20036;-83
2023/10/20 03:15:31;;;;;;;15.05;11.00;;;8.00;99.90;;;;;;5108050;28;20120;-83
2023/10/20 03:18:00;;;;;;;17.92;11.80;;;7.70;99.90;;;;;;5091157;27;20082;-83
2023/10/20 03:20:30;;;;;;;16.88;11.52;;;8.00;99.90;;;;;;5100562;27;20106;-83
2023/10/20 03:22:56;;;;;;;18.40;12.10;;;7.70;99.90;;;;;;5096555;27;20042;-83
2023/10/20 03:25:22;;;;;;;;;;;8.00;99.90;;;;;;5101017;27;20036;-84
2023/10/20 03:27:48;;;;;;;19.55;13.00;;;7.70;99.90;;;;;;5089076;28;20020;-83
2023/10/20 03:30:17;;;;;;;16.00;11.60;;;7.70;99.90;;;;;;5084647;27;20085;-83
2023/10/20 03:32:45;;;;;;;16.40;10.57;;;7.90;99.90;;;;;;5088756;27;21785;-84
2023/10/20 03:35:12;;;;;;;16.02;11.85;;;8.00;99.90;;;;;;5097938;27;20074;-84
2023/10/20 03:37:38;;;;;;;18.13;12.25;;;7.80;99.90;;;;;;5083937;27;20046;-84
2023/10/20 03:40:13;;;;;;;17.10;12.38;;;7.90;99.90;;;;;;5107868;28;20152;-83
2023/10/20 03:42:48;;;;;;;18.55;12.05;;;7.70;99.90;;;;;;5093774;28;20063;-84
2023/10/20 03:45:14;;;;;;;15.57;10.75;;;7.60;99.90;;;;;;5071299;28;20036;-85
2023/10/20 03:47:40;;;;;;;15.30;10.90;;;7.90;99.90;;;;;;5097293;28;20046;-84
2023/10/20 03:50:15;;;;;;;16.85;11.10;;;7.60;99.90;;;;;;5087727;27;20080;-83
2023/10/20 03:52:41;;;;;;;13.75;9.73;;;7.80;99.90;;;;;;5114802;27;20225;-83
2023/10/20 03:55:08;;;;;;;16.38;11.10;;;7.60;99.90;;;;;;5086828;28;20047;-83
2023/10/20 03:57:34;;;;;;;15.60;10.93;;;7.80;99.90;;;;;;5099988;28;20122;-83
2023/10/20 04:00:15;;;;;;;16.58;11.23;;;8.00;99.90;;;;;;5104010;28;20109;-84
2023/10/20 04:02:41;;;;;;;14.93;11.43;;;7.90;99.90;;;;;;5094696;27;20107;-85
2023/10/20 04:05:12;;;;;;;15.30;10.38;;;7.70;99.90;;;;;;5111185;27;20046;-80
2023/10/20 04:07:38;;;;;;;18.20;11.27;;;7.90;99.90;;;;;;5088779;28;20027;-79
2023/10/20 04:10:06;;;;;;;14.60;10.23;;;8.00;99.90;;;;;;5099947;27;20738;-78
2023/10/20 04:12:32;;;;;;;13.93;10.35;;;7.80;99.90;;;;;;5083104;27;20130;-79
2023/10/20 04:14:57;;;;;;;12.00;9.15;;;7.60;99.90;;;;;;5058914;27;20063;-79
2023/10/20 04:17:23;;;;;;;14.38;10.05;;;7.60;99.90;;;;;;5104164;28;20027;-79
2023/10/20 04:19:49;;;;;;;14.05;9.90;;;7.80;99.90;;;;;;5099790;27;20490;-78
2023/10/20 04:22:16;;;;;;;14.60;10.25;;;7.70;99.90;;;;;;5079139;28;20538;-79
2023/10/20 04:24:44;;;;;;;11.55;8.40;;;7.70;99.90;;;;;;5091328;27;20127;-78
2023/10/20 04:27:21;;;;;;;12.35;8.70;;;7.90;99.90;;;;;;5097274;27;20078;-77
2023/10/20 04:44:57;;;;;;;12.30;7.72;;;8.00;99.90;;;;;;5096938;28;20448;-85
2023/10/20 04:49:16;;;;;;;10.35;7.35;;;8.00;99.90;;;;;;5110415;28;20051;-80
2023/10/20 04:54:45;;;;;;;8.68;6.88;;;8.00;99.90;;;;;;5093189;28;20075;-77
2023/10/20 04:59:59;;;;;;;10.30;6.82;;;7.70;99.90;;;;;;5093627;28;20051;-80
2023/10/20 05:02:39;;;;;;;;;;;7.90;99.90;;;;;;5093430;28;20425;-78
2023/10/20 05:05:22;;;;;;;8.63;6.25;;;7.80;99.90;;;;;;5078859;28;19924;-79
2023/10/20 05:07:50;;;;;;;8.55;5.80;;;7.70;99.90;;;;;;5092130;28;20118;-78
2023/10/20 05:10:17;;;;;;;7.90;5.80;;;7.90;99.90;;;;;;5062712;28;20047;-80
2023/10/20 05:12:44;;;;;;;8.23;6.28;;;8.00;99.90;;;;;;5103401;27;20042;-80
2023/10/20 05:15:12;;;;;;;;;;;7.90;99.90;;;;;;5084325;27;20040;-79
2023/10/20 05:17:38;;;;;;;9.50;6.25;;;7.70;99.90;;;;;;5086051;27;20370;-78
2023/10/20 05:20:05;;;;;;;8.10;6.45;;;7.80;99.90;;;;;;5098066;28;20044;-78
2023/10/20 05:22:34;;;;;;;8.50;6.00;;;7.80;99.90;;;;;;5082861;28;20130;-78
2023/10/20 05:25:01;;;;;;;6.05;5.40;;;7.70;99.90;;;;;;5092397;27;20042;-79
2023/10/20 05:27:28;;;;;;;9.95;5.88;;;7.70;99.90;;;;;;5091022;27;20047;-79
2023/10/20 05:29:53;;;;;;;11.00;6.13;;;7.80;99.90;;;;;;5081447;27;20103;-79
2023/10/20 05:32:19;;;;;;;7.57;5.55;;;8.00;99.90;;;;;;5087710;27;20482;-78
2023/10/20 05:34:45;;;;;;;8.30;6.20;;;7.80;99.90;;;;;;5108921;27;20092;-79
2023/10/20 05:37:10;;;;;;;7.57;5.43;;;7.80;99.90;;;;;;5083054;27;20062;-79
2023/10/20 05:39:36;;;;;;;6.82;5.13;;;7.70;99.90;;;;;;5086975;28;20062;-78
2023/10/20 05:42:04;;;;;;;7.90;5.70;;;7.80;99.90;;;;;;5053830;27;20037;-77
2023/10/20 05:44:44;;;;;;;8.45;5.30;;;7.80;99.90;;;;;;5087530;28;20089;-76
2023/10/20 05:47:09;;;;;;;7.53;4.88;;;8.00;99.90;;;;;;5081535;27;20095;-77
2023/10/20 05:49:35;;;;;;;7.63;5.03;;;7.90;99.90;;;;;;5075680;27;20042;-76
2023/10/20 05:52:01;;;;;;;7.15;5.07;;;8.00;99.90;;;;;;5069645;28;20115;-76
2023/10/20 05:54:28;;;;;;;8.63;4.95;;;7.90;99.90;;;;;;5075409;28;20115;-76
2023/10/20 05:56:54;;;;;;;7.35;4.93;;;7.90;99.90;;;;;;5068826;28;20047;-76
2023/10/20 05:59:19;;;;;;;7.13;5.00;;;8.00;99.90;;;;;;5087558;28;20181;-77
2023/10/20 06:01:46;;;;;;;7.03;5.35;;;7.80;99.90;;;;;;5099965;28;20059;-85
2023/10/20 06:04:12;;;;;;;7.25;4.80;;;8.00;99.90;;;;;;5083854;28;20062;-85
2023/10/20 06:06:39;;;;;;;6.47;4.57;;;7.80;99.90;;;;;;5101872;28;20924;-86
2023/10/20 06:09:06;;;;;;;7.13;4.50;;;7.80;99.90;;;;;;5077816;28;20328;-85
2023/10/20 06:11:35;;;;;;;6.18;4.22;;;7.90;99.90;;;;;;5092059;28;20046;-85
2023/10/20 06:14:01;;;;;;;6.22;3.78;;;8.00;99.90;;;;;;5101291;28;20517;-85
2023/10/20 06:16:26;;;;;;;6.57;3.88;;;7.90;99.90;;;;;;5095600;28;20117;-84
2023/10/20 06:18:52;;;;;;;7.88;3.80;;;7.80;99.90;;;;;;5086413;28;20375;-85
2023/10/20 06:21:18;;;;;;;5.18;3.20;;;7.90;99.90;;;;;;5089339;28;20039;-84
2023/10/20 06:23:44;;;;;;;4.05;3.10;;;8.00;99.90;;;;;;5096928;28;20051;-86
2023/10/20 06:26:10;;;;;;;;;;;7.90;99.90;;;;;;5119785;28;20502;-86
2023/10/20 06:28:35;;;;;;;5.38;2.97;;;8.00;99.90;;;;;;5114725;28;19927;-86
2023/10/20 06:31:15;;;;;;;5.25;2.90;;;7.80;99.90;;;;;;5098270;28;20474;-88
2023/10/20 06:33:43;;;;;;;4.93;3.03;;;7.80;99.90;;;;;;5078046;28;20039;-86
2023/10/20 06:36:10;;;;;;;4.20;2.60;;;7.90;99.90;;;;;;5086351;28;20486;-84
2023/10/20 06:41:03;;;;;;;3.92;2.55;;;7.80;99.90;;;;;;5094660;28;20164;-85
2023/10/20 06:43:30;;;;;;;4.43;2.28;;;7.90;99.90;;;;;;5109202;28;20118;-86
2023/10/20 06:45:57;;;;;;;4.03;2.58;;;7.90;99.90;;;;;;5089668;28;20071;-86
2023/10/20 06:48:23;;;;;;;3.50;2.20;;;7.90;99.90;;;;;;5091426;28;20347;-87
2023/10/20 06:50:49;;;;;;;4.10;2.78;;;7.80;99.90;;;;;;5094923;28;20043;-86
2023/10/20 06:53:14;;;;;;;3.35;2.40;;;7.70;99.90;;;;;;5085747;28;20046;-89
2023/10/20 06:56:05;;;;;;;4.50;2.63;;;7.70;99.90;;;;;;5089730;28;20035;-86
2023/10/20 06:58:31;;;;;;;3.58;2.35;;;7.70;99.90;;;;;;5110489;28;20125;-86
2023/10/20 07:00:56;;;;;;;3.60;2.60;;;7.70;99.90;;;;;;5099075;28;20148;-85
2023/10/20 07:03:22;;;;;;;5.45;2.40;;;7.80;99.90;;;;;;5103227;28;20074;-85
2023/10/20 07:05:48;;;;;;;4.00;2.38;;;7.70;99.90;;;;;;5085756;28;20047;-85
2023/10/20 07:08:14;;;;;;;3.13;2.30;;;7.60;99.90;;;;;;5084157;27;20036;-86
2023/10/20 07:10:39;;;;;;;4.10;2.72;;;7.60;99.90;;;;;;5092224;27;20451;-85
2023/10/20 07:13:06;;;;;;;3.95;2.58;;;7.60;99.90;;;;;;5111158;28;20047;-85
2023/10/20 07:15:35;;;;;;;3.80;2.88;;;7.60;99.90;;;;;;5091995;27;20042;-85
2023/10/20 07:18:02;;;;;;;4.43;2.45;;;7.70;99.90;;;;;;5086488;28;20115;-84
2023/10/20 07:20:30;;;;;;;4.10;2.20;;;7.50;99.90;;;;;;5111469;27;20180;-83
2023/10/20 07:22:59;;;;;;;4.45;2.40;;;7.70;99.90;;;;;;5088695;28;20063;-82
2023/10/20 07:25:26;;;;;;;2.28;2.00;;;7.50;99.90;;;;;;5087714;28;20165;-86
2023/10/20 07:27:53;;;;;;;3.35;2.20;;;7.60;99.90;;;;;;5103500;27;20039;-85
2023/10/20 07:30:19;;;;;;;2.50;1.90;;;7.60;99.90;;;;;;5080769;28;20054;-85
2023/10/20 07:32:46;;;;;;;3.05;2.15;;;7.60;99.90;;;;;;5100261;27;20122;-85
2023/10/20 07:35:12;;;;;;;2.97;2.13;;;7.60;99.90;;;;;;5092374;27;20487;-85
2023/10/20 07:37:39;;;;;;;2.75;1.90;;;7.60;99.90;;;;;;5095443;27;20039;-85
2023/10/20 07:40:07;;;;;;;;;;;7.50;99.90;;;;;;5069853;27;20061;-85
2023/10/20 07:42:36;;;;;;;4.93;2.50;;;7.50;99.90;;;;;;5096559;27;19963;-83
2023/10/20 07:45:02;;;;;;;3.10;2.42;;;7.40;99.90;;;;;;5084546;28;20118;-84
2023/10/20 07:47:28;;;;;;;3.60;2.38;;;7.40;99.90;;;;;;5086081;28;20124;-76
2023/10/20 07:49:57;;;;;;;2.60;2.10;;;7.40;99.90;;;;;;5077299;27;20051;-75
2023/10/20 07:52:24;;;;;;;3.55;2.20;;;7.50;99.90;;;;;;5077679;27;20034;-76
2023/10/20 07:54:50;;;;;;;3.22;2.30;;;7.30;99.90;;;;;;5086888;27;20042;-76
2023/10/20 07:57:17;;;;;;;3.92;2.30;;;7.30;99.90;;;;;;5065418;27;20034;-75
2023/10/20 07:59:44;;;;;;;4.03;2.50;;;7.40;99.90;;;;;;5078473;27;20035;-83
2023/10/20 08:02:10;;;;;;;4.68;2.88;;;7.30;99.90;;;;;;5092196;27;20051;-84
2023/10/20 08:04:41;;;;;;;4.40;3.03;;;7.40;99.90;;;;;;5100588;27;20043;-84
2023/10/20 08:07:09;;;;;;;4.55;2.90;;;7.30;99.90;;;;;;5106368;27;20047;-84
2023/10/20 08:09:36;;;;;;;4.50;2.90;;;7.30;99.90;;;;;;5106094;27;20047;-83
2023/10/20 08:12:02;;;;;;;4.05;2.90;;;7.40;99.90;;;;;;5100751;27;20050;-83
2023/10/20 08:14:28;;;;;;;;;;;7.40;99.90;;;;;;5084392;27;20506;-74
2023/10/20 08:16:54;;;;;;;4.03;2.90;;;7.30;99.90;;;;;;5083807;27;19919;-75
2023/10/20 08:19:20;;;;;;;3.92;2.55;;;7.30;99.90;;;;;;5087543;27;20624;-76
2023/10/20 08:21:46;;;;;;;5.38;2.67;;;7.40;99.90;;;;;;5078101;27;20047;-76
2023/10/20 08:24:15;;;;;;;3.05;2.60;;;7.30;99.90;;;;;;5091305;27;20039;-75
2023/10/20 08:26:42;;;;;;;4.00;2.53;;;7.50;99.90;;;;;;5081036;27;20087;-75
2023/10/20 08:29:11;;;;;;;3.75;2.40;;;7.40;99.90;;;;;;5084747;27;20054;-76
2023/10/20 08:31:38;;;;;;;3.03;2.40;;;7.40;99.90;;;;;;5064458;27;20070;-75
2023/10/20 08:34:04;;;;;;;3.20;2.40;;;7.20;99.90;;;;;;5077535;27;20047;-75
2023/10/20 08:36:30;;;;;;;3.25;2.30;;;7.20;99.90;;;;;;5086175;27;20065;-75
2023/10/20 08:39:01;;;;;;;2.78;2.00;;;7.30;99.90;;;;;;5084434;27;20923;-75
2023/10/20 08:41:27;;;;;;;2.65;1.88;;;7.30;99.90;;;;;;5084701;28;20043;-75
2023/10/20 08:43:55;;;;;;;2.40;1.90;;;7.40;99.90;;;;;;5095928;27;20039;-74
2023/10/20 08:46:23;;;;;;;3.58;2.10;;;7.30;99.90;;;;;;5085720;27;20036;-74
2023/10/20 08:48:49;;;;;;;2.88;2.00;;;7.30;99.90;;;;;;5095072;28;20101;-74
2023/10/20 08:51:17;;;;;;;;;;;7.10;99.90;;;;;;5097445;27;20039;-74
2023/10/20 08:53:43;;;;;;;;;;;7.20;99.90;;;;;;5077258;27;19958;-74
2023/10/20 08:56:13;;;;;;;2.88;1.90;;;7.30;99.90;;;;;;5102005;27;19986;-74
2023/10/20 08:58:39;;;;;;;2.95;1.80;;;7.30;99.90;;;;;;5105990;27;20043;-73
2023/10/20 09:01:05;;;;;;;4.15;1.80;;;7.30;99.90;;;;;;5088837;27;20062;-74
2023/10/20 09:03:46;;;;;;;3.78;1.90;;;7.10;99.90;;;;;;5106929;28;20126;-74
2023/10/20 09:06:16;;;;;;;3.30;1.90;;;7.30;99.90;;;;;;5096965;28;20036;-74
2023/10/20 09:08:47;;;;;;;3.80;1.80;;;7.10;99.90;;;;;;5088238;28;20051;-74
2023/10/20 09:11:13;;;;;;;2.42;1.55;;;7.30;99.90;;;;;;5082776;27;20031;-74
2023/10/20 09:13:40;;;;;;;2.95;1.95;;;7.30;99.90;;;;;;5086642;28;20472;-75
2023/10/20 09:16:11;;;;;;;3.75;1.90;;;7.10;99.90;;;;;;5080718;28;20036;-76
2023/10/20 09:18:52;;;;;;;3.80;2.17;;;7.20;99.90;;;;;;5079888;28;20387;-74
2023/10/20 09:21:21;;;;;;;2.80;1.98;;;7.20;99.90;;;;;;5094605;27;20039;-75
2023/10/20 09:24:07;;;;;;;2.20;1.70;;;7.10;99.90;;;;;;5085127;27;20050;-74
2023/10/20 09:26:35;;;;;;;4.20;1.80;;;7.30;99.90;;;;;;5090489;27;20050;-74
2023/10/20 09:29:05;;;;;;;2.38;1.50;;;7.20;99.90;;;;;;5082885;28;20097;-74
2023/10/20 09:31:31;;;;;;;4.05;1.50;;;7.20;99.90;;;;;;5081971;27;20040;-74
2023/10/20 09:33:58;;;;;;;2.25;1.40;;;7.20;99.90;;;;;;5087753;28;20074;-74
2023/10/20 09:36:24;;;;;;;;;;;7.30;99.90;;;;;;5074102;28;20063;-83
2023/10/20 09:38:54;;;;;;;1.58;1.17;;;7.10;99.90;;;;;;5103479;28;20052;-85
2023/10/20 09:41:27;;;;;;;2.75;1.40;;;7.00;99.90;;;;;;5092683;28;20039;-74
2023/10/20 09:44:05;;;;;;;2.67;1.20;;;7.20;99.90;;;;;;5072733;28;20620;-74
2023/10/20 09:46:43;;;;;;;1.52;1.00;;;6.90;99.90;;;;;;5091222;28;20067;-74
2023/10/20 09:49:27;;;;;;;3.95;1.40;;;6.90;99.90;;;;;;5088988;27;20113;-74
2023/10/20 09:51:55;;;;;;;3.53;1.10;;;7.20;99.90;;;;;;5084452;28;20043;-74
2023/10/20 09:54:25;;;;;;;1.63;1.10;;;7.10;99.90;;;;;;5091957;28;20552;-74
2023/10/20 09:56:52;;;;;;;2.50;1.13;;;7.00;99.90;;;;;;5089535;28;20127;-75
2023/10/20 09:59:23;;;;;;;2.22;1.23;;;7.10;99.90;;;;;;5090268;28;20111;-75
2023/10/20 10:01:52;;;;;;;2.30;1.10;;;7.10;99.90;;;;;;5079145;28;20501;-75
2023/10/20 10:04:29;;;;;;;2.60;1.60;;;7.10;99.90;;;;;;5087965;28;20050;-75
2023/10/20 10:06:59;;;;;;;1.88;1.20;;;6.90;99.90;;;;;;5089584;28;20538;-79
2023/10/20 10:09:35;;;;;;;2.72;1.25;;;7.10;99.90;;;;;;5081921;28;20944;-74
2023/10/20 10:12:07;;;;;;;1.55;1.02;;;6.90;99.90;;;;;;5093508;28;20494;-75
2023/10/20 10:14:33;;;;;;;2.65;1.20;;;7.10;99.90;;;;;;5090289;28;20538;-77
2023/10/20 10:17:01;;;;;;;1.55;1.10;;;7.10;99.90;;;;;;5087480;28;20028;-74
2023/10/20 10:19:28;;;;;;;2.83;1.50;;;7.00;99.90;;;;;;5078275;28;20044;-83
2023/10/20 10:22:01;;;;;;;2.28;1.42;;;7.10;99.90;;;;;;5099572;28;20063;-82
2023/10/20 10:24:31;;;;;;;3.10;1.58;;;6.90;99.90;;;;;;5098289;28;20052;-83
2023/10/20 10:27:06;;;;;;;2.22;1.10;;;7.10;99.90;;;;;;5103264;28;20040;-82
2023/10/20 10:29:50;;;;;;;1.42;1.05;;;7.00;99.90;;;;;;5077661;28;20048;-82
2023/10/20 10:32:21;;;;;;;1.40;1.08;;;7.10;99.90;;;;;;5099192;28;20039;-83
2023/10/20 10:34:49;;;;;;;1.65;1.00;;;7.10;99.90;;;;;;5085552;28;20185;-83
2023/10/20 10:37:25;;;;;;;2.33;1.00;;;6.80;99.90;;;;;;5079446;28;20061;-81
2023/10/20 10:39:51;;;;;;;2.90;0.83;;;6.90;99.90;;;;;;5092709;28;20040;-82
2023/10/20 10:42:16;;;;;;;1.10;0.80;;;7.10;99.90;;;;;;5098255;27;20805;-85
2023/10/20 10:44:42;;;;;;;2.88;1.20;;;6.80;99.90;;;;;;5088151;28;20051;-81
2023/10/20 10:47:19;;;;;;;1.73;1.00;;;6.80;99.90;;;;;;5087091;28;20036;-84
2023/10/20 10:49:49;;;;;;;1.50;1.08;;;6.80;99.90;;;;;;5097549;28;20043;-82
2023/10/20 10:52:16;;;;;;;1.65;1.15;;;7.00;99.90;;;;;;5100692;28;20040;-81
2023/10/20 10:54:43;;;;;;;1.75;0.98;;;7.00;99.90;;;;;;5096213;27;20040;-84
2023/10/20 10:57:09;;;;;;;1.58;0.95;;;6.70;99.90;;;;;;5097965;28;20535;-85
2023/10/20 10:59:39;;;;;;;1.98;0.90;;;6.80;99.90;;;;;;5075497;28;20032;-83
2023/10/20 11:02:06;;;;;;;1.05;0.90;;;6.70;99.90;;;;;;5082120;28;20542;-82
2023/10/20 11:04:32;;;;;;;1.92;0.90;;;6.80;99.90;;;;;;5069359;28;20043;-83
2023/10/20 11:06:58;;;;;;;1.60;0.90;;;6.70;99.90;;;;;;5074990;28;20042;-80
2023/10/20 11:09:29;;;;;;;1.48;0.80;;;6.90;99.90;;;;;;5052344;28;20040;-81
2023/10/20 11:11:56;;;;;;;1.27;0.65;;;6.70;99.90;;;;;;5102867;28;20054;-81
2023/10/20 11:14:25;;;;;;;1.00;0.80;;;6.90;99.90;;;;;;5102513;28;20031;-86
2023/10/20 11:16:51;;;;;;;1.80;1.08;;;6.90;99.90;;;;;;5096684;28;20040;-82
2023/10/20 11:19:17;;;;;;;2.90;0.75;;;6.70;99.90;;;;;;5082186;28;20056;-80
2023/10/20 11:21:51;;;;;;;0.95;0.77;;;6.70;99.90;;;;;;5054780;28;20744;-80
2023/10/20 11:24:29;;;;;;;0.80;0.80;;;6.60;99.90;;;;;;5095275;28;20459;-74
2023/10/20 11:27:00;;;;;;;0.82;0.80;;;6.80;99.90;;;;;;5076787;28;20047;-74
2023/10/20 11:29:36;;;;;;;0.80;0.77;;;6.60;99.90;;;;;;5093252;28;20068;-74
2023/10/20 11:32:07;;;;;;;1.10;0.75;;;6.70;99.90;;;;;;5081880;28;20158;-73
2023/10/20 11:34:34;;;;;;;2.53;1.70;;;6.90;99.90;;;;;;5085558;28;20046;-73
2023/10/20 11:37:00;;;;;;;2.13;0.90;;;6.60;99.90;;;;;;5076288;28;20089;-74
2023/10/20 11:39:27;;;;;;;1.65;1.00;;;6.60;99.90;;;;;;5095699;28;20048;-73
2023/10/20 11:41:56;;;;;;;1.60;1.00;;;6.80;99.90;;;;;;5079947;28;20395;-75
2023/10/20 11:44:27;;;;;;;1.42;0.80;;;6.90;99.90;;;;;;5096210;27;20491;-87
2023/10/20 11:46:53;;;;;;;0.80;0.70;;;6.90;99.90;;;;;;5093882;28;20482;-75
2023/10/20 11:49:26;;;;;;;1.27;0.80;;;6.70;99.90;;;;;;5077690;28;20043;-72
2023/10/20 11:51:52;;;;;;;1.48;1.20;;;7.00;99.90;;;;;;5078050;28;20097;-73
2023/10/20 11:54:19;;;;;;;1.90;1.00;;;6.90;99.90;;;;;;5079709;28;21209;-74
2023/10/20 11:56:45;;;;;;;1.58;0.90;;;6.70;99.90;;;;;;5090751;28;20340;-73
2023/10/20 11:59:11;;;;;;;1.10;0.70;;;7.00;99.90;;;;;;5092362;28;20380;-75
2023/10/20 12:01:38;;;;;;;1.02;0.73;;;6.70;99.90;;;;;;5087272;27;20164;-73
2023/10/20 12:04:08;;;;;;;1.60;1.13;;;6.80;99.90;;;;;;5089413;27;20040;-73
2023/10/20 12:06:40;;;;;;;1.67;0.93;;;6.90;99.90;;;;;;5105647;27;20128;-75
2023/10/20 12:09:10;;;;;;;1.70;1.00;;;6.70;99.90;;;;;;5081275;28;20040;-74
2023/10/20 12:11:36;;;;;;;0.88;0.80;;;6.70;99.90;;;;;;5088996;28;20048;-73
2023/10/20 12:14:05;;;;;;;1.58;0.80;;;6.90;99.90;;;;;;5092061;28;20414;-83
2023/10/20 12:16:31;;;;;;;1.10;0.90;;;6.60;99.90;;;;;;5095576;28;20418;-74
2023/10/20 12:19:06;;;;;;;2.30;0.80;;;6.90;99.90;;;;;;5095142;28;20048;-75
2023/10/20 12:21:32;;;;;;;2.03;0.80;;;6.60;99.90;;;;;;5079546;27;20105;-75
2023/10/20 12:23:58;;;;;;;0.93;0.80;;;6.90;99.90;;;;;;5099434;27;20047;-74
2023/10/20 12:26:24;;;;;;;1.95;0.80;;;6.60;99.90;;;;;;5112516;27;20605;-75
2023/10/20 12:28:50;;;;;;;1.02;0.77;;;6.60;99.90;;;;;;5079387;27;20043;-76
2023/10/20 12:31:17;;;;;;;1.08;0.80;;;6.60;99.90;;;;;;5104313;28;20039;-76
2023/10/20 12:33:45;;;;;;;0.77;0.60;;;6.90;99.90;;;;;;5107578;28;20036;-76
2023/10/20 12:36:16;;;;;;;1.38;0.70;;;6.80;99.90;;;;;;5066752;28;20043;-77
2023/10/20 12:38:45;;;;;;;1.88;0.65;;;6.60;99.90;;;;;;5102412;27;20054;-75
2023/10/20 12:41:11;;;;;;;1.02;0.70;;;6.70;99.90;;;;;;5080709;27;20073;-75
2023/10/20 12:43:41;;;;;;;0.95;0.75;;;6.70;99.90;;;;;;5104414;27;20506;-76
2023/10/20 12:46:07;;;;;;;0.50;0.50;;;6.70;99.90;;;;;;5103355;27;20459;-74
2023/10/20 12:48:36;;;;;;;1.05;0.80;;;6.90;99.90;;;;;;5094459;28;20051;-74
2023/10/20 12:51:08;;;;;;;1.98;0.88;;;6.90;99.90;;;;;;5098572;28;20046;-75
2023/10/20 12:53:35;;;;;;;0.90;0.80;;;6.80;99.90;;;;;;5101404;28;20035;-74
2023/10/20 12:56:00;;;;;;;0.98;0.70;;;6.70;99.90;;;;;;5094406;28;20562;-75
2023/10/20 12:58:26;;;;;;;1.35;0.80;;;7.00;99.90;;;;;;5108436;27;20083;-74
2023/10/20 13:00:52;;;;;;;0.80;0.60;;;6.80;99.90;;;;;;5082758;28;20056;-74
2023/10/20 13:03:18;;;;;;;1.00;0.80;;;6.90;99.90;;;;;;5104024;28;20043;-75
2023/10/20 13:05:44;;;;;;;0.60;0.52;;;6.90;99.90;;;;;;5101013;28;20044;-74
2023/10/20 13:08:13;;;;;;;2.00;0.70;;;6.60;99.90;;;;;;5102146;28;20112;-72
2023/10/20 13:10:39;;;;;;;0.73;0.60;;;6.60;99.90;;;;;;5106677;28;20040;-73
2023/10/20 13:13:06;;;;;;;;;;;6.80;99.90;;;;;;5103901;28;20059;-73
2023/10/20 13:15:33;;;;;;;1.58;0.65;;;6.60;99.90;;;;;;5095987;28;19966;-73
2023/10/20 13:17:59;;;;;;;;;;;6.60;99.90;;;;;;5090141;28;20079;-73
2023/10/20 13:20:24;;;;;;;0.90;0.70;;;6.70;99.90;;;;;;5089542;28;19963;-74
2023/10/20 13:22:51;;;;;;;1.60;0.50;;;6.90;99.90;;;;;;5089926;28;20104;-74
2023/10/20 13:25:17;;;;;;;1.08;0.60;;;6.90;99.90;;;;;;5089475;28;20092;-74